UK Observations

KGNC 180535Z AUTO 15003KT 10SM CLR 20/19 A3002 RMK AO2 T02000188 EGAA 180520Z 24009KT 9999 FEW017 SCT022 BKN029 11/09 Q1013 EGAC 180520Z AUTO 24010KT 9999 SCT029/// BKN034/// 12/08 Q1013 EGAE 180520Z 24008KT 9999 FEW014 SCT020 BKN038 12/10 Q1012 EGBB 180520Z 26007KT 9999 FEW018 BKN031 15/13 Q1016 EGCC 180520Z AUTO 27007KT 9999 BKN036 14/10 Q1015 NOSIG EGFF 180520Z AUTO 27013KT 9999 OVC010 14/12 Q1018 EGGD 180520Z AUTO 25013KT 9999 BKN007 OVC018 13/13 Q1018 EGGP 180520Z 29012KT 9999 FEW028 SCT035 14/10 Q1015 EGGW 180520Z 23007KT 9999 FEW027 14/13 Q1017 EGHH 180520Z 25006KT 9999 SCT015 BKN017 15/13 Q1018 EGHI 180520Z 26005KT 220V300 9999 BKN018 14/11 Q1018 EGJB 180520Z 24009KT 0800 R27/1400 -DZ FG BKN000 BKN001 13/13 Q1021 EGJJ 180520Z 27012KT 7000 FEW002 BKN003 14/13 Q1021 EGKB 180520Z 23008KT 200V270 7000 BKN010 14/13 Q1018 EGKK 180520Z 24006KT 9999 FEW006 BKN020 15/14 Q1018 EGLC 180520Z AUTO 25012KT 9999 BKN018 OVC025 16/13 Q1017 EGLL 180520Z AUTO 25008KT 9999 OVC023 15/13 Q1018 NOSIG EGMC 180520Z 24011KT 9999 BKN009 BKN014 16/13 Q1016 EGMD 180520Z AUTO 24010KT 9999 BKN004/// BKN008/// OVC020/// 16/15 Q1018 EGNH 180520Z 27018KT 9999 SCT036 13/11 Q1014 EGNJ 180520Z 23008KT 9999 SCT017 BKN025 16/14 Q1014 EGNM 180520Z 26019G29KT 230V290 9999 FEW010 13/10 Q1013 EGNS 180520Z 25012KT 210V280 9999 FEW010 BKN036 12/10 Q1014 NOSIG EGNT 180520Z 27016KT 9999 FEW017 13/08 Q1010 EGNV 180520Z 20010KT 9999 FEW035 14/10 Q1012 EGNX 180520Z 23011KT 9999 FEW005 SCT011 BKN019 14/13 Q1015 EGPB 180520Z 25021KT 9999 FEW012 11/09 Q1001 NOSIG EGPC 180520Z 25012KT 9999 FEW012 BKN047 12/07 Q1004 EGPD 180520Z AUTO 25009KT 9999 NCD 13/06 Q1007 NOSIG EGPE 180520Z AUTO 23014KT 9999 SCT037/// BKN044/// 13/08 Q1006 EGPF 180520Z AUTO 24012KT 9999 FEW023 OVC029 12/09 Q1011 EGPH 180520Z 23014KT 9999 BKN021 OVC035 12/09 Q1010 EGPL 180520Z AUTO 25019KT 9999 BKN035/// OVC041/// 12/07 Q1006 EGPM 180520Z 23018KT 9999 FEW011 SCT032 11/07 Q1000 NOSIG EGPN 180520Z 27014KT 9999 SCT041 13/10 Q1008 EGPO 180520Z 24018G28KT 9999 FEW015 SCT033 BKN042 12/06 Q1004 EGPU 180520Z AUTO 24015KT 210V270 9999 BKN044/// 11/09 Q1009 EGSH 180520Z 23008KT 9999 FEW011 BKN035 16/14 Q1015 NOSIG EGSS 180520Z AUTO 24010KT 9999 FEW024 15/12 Q1017 EGTE 180520Z 28007KT 260V320 9999 FEW010 BKN020 13/10 Q1019 EGUL 180518Z AUTO 24009KT 9999 OVC030 16/13 A2998 RMK AO2 SLP155 $ KGNC 180515Z AUTO 13003KT 10SM CLR 20/19 A3002 RMK AO2 T02000187 EGCN 180520Z 27009KT 9999 SCT020 BKN032 16/13 Q1015 EGNR 180520Z 32006KT 9999 BKN018 14/10 Q1016 EGPI 180520Z AUTO 26011KT 9999 // BKN041/// 11/09 Q1011 EGTK 180520Z 24011KT 9999 FEW008 BKN009 14/13 Q1016 EGAA 180450Z 23009KT 9999 BKN019 BKN027 11/09 Q1013 EGAC 180450Z AUTO 23009KT 9999 BKN030/// OVC038/// 12/08 Q1013 EGAE 180450Z 22008KT 9999 FEW014 BKN023 12/09 Q1012 EGBB 180450Z 24007KT 210V280 9999 FEW016 BKN026 15/13 Q1016 EGCC 180450Z AUTO 26006KT 220V290 9999 SCT024 BKN040 13/11 Q1015 NOSIG EGDM 180450Z AUTO 25008KT 9999 FEW006/// BKN019/// 13/12 Q1018 EGDR 180450Z 27008KT 9999 FEW008 SCT012 13/11 Q1020 REDZ GRN EGDY 180450Z 25006KT 6000 VCSH SCT015 BKN020 14/12 Q1018 WHT EGFF 180450Z AUTO 27014KT 9999 OVC010 14/12 Q1018 EGGD 180450Z AUTO 26014KT 9999 BKN008 OVC015 13/13 Q1018 EGGP 180450Z 28012KT 9999 FEW026 SCT038 14/09 Q1015 EGGW 180450Z AUTO 23006KT 9999 FEW022 14/12 Q1017 EGHH 180450Z 25007KT 9999 FEW013 BKN018 15/12 Q1018 EGHI 180450Z 25005KT 220V290 9999 BKN018 14/11 Q1018 EGJB 180450Z 26009KT 1000 R27/1200 -DZ VCFG FEW000 BKN001 13/13 Q1021 EGJJ 180450Z 27013KT 9999 SCT003 BKN004 14/13 Q1021 EGKK 180450Z 24006KT 9999 FEW005 BKN020 15/15 Q1018 EGLC 180450Z AUTO 27013KT 9999 OVC014 16/13 Q1017 RERA REDZ EGLL 180450Z AUTO 26008KT 9999 BKN026 OVC030 15/13 Q1017 NOSIG EGMC 180450Z 23010KT 9999 BKN008 BKN012 16/14 Q1016 EGMD 180450Z AUTO 23012KT 7000 BKN003/// OVC006/// 15/15 Q1018 EGNJ 180450Z 21006KT 9999 SCT025 BKN033 15/14 Q1013 EGNM 180450Z 26017G28KT 9999 FEW010 13/10 Q1012 EGNS 180450Z 25011KT 210V270 9999 FEW010 BKN035 12/10 Q1014 EGNT 180450Z 26014KT 9999 FEW017 13/09 Q1010 EGNV 180450Z 18008KT 9999 FEW035 14/10 Q1011 EGNX 180450Z 24010KT 9999 BKN010 BKN024 14/13 Q1015 EGOS 180450Z 22008KT 9999 BKN030 14/11 Q1015 BLU EGOV 180450Z AUTO 26009KT 9999 FEW032/// BKN080/// 13/09 Q1016 EGPA 180450Z AUTO 24014KT 9999 BKN045/// 12/08 Q1003 EGPB 180450Z AUTO 23017KT 9999 SCT014/// BKN038/// 11/09 Q1001 EGPC 180450Z AUTO 25015KT 9999 BKN046/// 12/07 Q1004 EGPD 180450Z AUTO 25009KT 9999 NCD 13/06 Q1006 NOSIG EGPE 180450Z AUTO 22014KT 9999 SCT039/// BKN047/// 12/08 Q1006 EGPF 180450Z AUTO 24010KT 9999 FEW025 BKN034 OVC043 12/09 Q1011 EGPH 180450Z 24011KT 9999 OVC037 11/09 Q1010 EGPK 180450Z 23010KT 9999 BKN030 12/09 Q1012 EGPL 180450Z AUTO 25019KT 9999 FEW011/// OVC032/// 11/08 Q1006 EGPO 180450Z 24019KT 9999 FEW015 SCT029 BKN042 11/06 Q1003 EGPU 180450Z AUTO 24018KT 9999 BKN044/// 11/08 Q1009 EGQK 180450Z AUTO 22013KT 9999 BKN045/// 12/07 Q1005 EGQL 180450Z 26016KT 9999 SCT040 BKN140 12/09 Q1008 BLU EGQM 180450Z AUTO 24006KT 9999 FEW120/// SCT250/// 13/10 Q1010 EGQS 180450Z 24011KT 9999 SCT046 12/07 Q1005 BLU EGSH 180450Z AUTO 23008KT 9999 BKN010/// OVC035/// 16/14 Q1015 EGSS 180450Z 26006KT 9999 SCT009 BKN018 BKN022 15/13 Q1017 EGTE 180450Z 29012KT 9999 FEW012 SCT020 13/11 Q1019 EGUB 180450Z AUTO 22009KT 9999 // SCT019/// 14/12 Q1017 EGUL 180456Z AUTO 24010KT 9999 OVC029 16/13 A2997 RMK AO2 SLP152 T01590128 $ EGUN 180456Z AUTO 23010KT 9999 OVC029 16/16 A2998 RMK AO2 SLP155 T01580158 $ EGUN 180456Z AUTO 23010KT 9999 OVC029 16/16 A2998 RMK AO2 SLP155 T01580158 . EGVA 180456Z AUTO 25010KT 9999 OVC010 14/13 A3003 RMK AO2 RAE03DZB03E07RAB07E16 SLP172 P0000 T01380127 $ EGVN 180450Z 23005KT 9999 SCT009 BKN031 14/13 Q1017 GRN TEMPO SCT015 WHT EGVN 180450Z 23005KT 9999 SCT009 BKN031 14/13 Q1017 TEMPO SCT015 EGWU 180450Z AUTO 25009KT 9999 // OVC021/// 15/12 Q1017 EGXC 180450Z 22009KT 9999 BKN019 BKN050 16/14 Q1014 WHT EGXT 180450Z AUTO 24008KT 9999 BKN011/// SCT025/// 15/13 Q1015 EGYD 180450Z AUTO 24011KT 9999 // OVC016/// 15/13 Q1014 GBYD 180500Z 26005KT 9999 BKN011 23/20 Q1016 KGNC 180455Z AUTO 13004KT 10SM CLR 20/19 A3002 RMK AO2 T02020189 EGCN 180450Z 27007KT 9999 FEW012 BKN019 BKN027 16/14 Q1015 EGDX 180450Z AUTO 27014G24KT 9999 BKN011/// BKN017/// 14/12 Q1017 EGOM 180450Z AUTO 24013KT 9999 FEW003/// BKN035/// 10/09 Q1011 EGOP 180450Z AUTO 27017KT 9999 // FEW012/// OVC026/// 14/12 Q1018 EGPI 180450Z AUTO 26011KT 9999 // BKN042/// 11/10 Q1011 EGUW 180450Z AUTO 22005KT 6000 BR BKN002/// SCT015/// 15/15 Q1016 RERA EGVO 180450Z 23007KT 9999 FEW010 BKN018 14/13 Q1017 WHT EGVP 180450Z 25007KT 8000 -RADZ BKN009 OVC016 14/12 Q1018 GRN EGXE 180450Z AUTO 21006KT 9999 SCT021/// SCT039/// 14/10 Q1012 EGXP 180450Z AUTO 22008KT 9999 // FEW016/// BKN041/// 15/14 Q1014 EGXS 180450Z AUTO 21007KT 9999 // BKN037/// 15/14 Q1014 EGXU 180450Z AUTO 24007KT 9999 // BKN018/// 15/11 Q1013 EGXV 180450Z AUTO 24007KT 9999 FEW022/// SCT029/// BKN049/// 15/13 Q1013 EGXW 180450Z 22008KT 9999 -RA FEW014 BKN018 15/13 Q1014 WHT BECMG BKN030 BLU EGXZ 180450Z AUTO 20005KT 9999 BKN023/// 14/11 Q1012 EGYM 180450Z 23012KT 9999 FEW012 BKN030 16/14 Q1015 BLU NOSIG